Time,TemperatureF,DewpointF,PressureIn,WindDirection,WindDirectionDegrees,WindSpeedMPH,WindSpeedGustMPH,Humidity,HourlyPrecipIn,Conditions,Clouds,dailyrainin,SolarRadiationWatts/m^2,SoftwareType,DateUTC
2013-05-08 00:00:00,52.2,52.2,29.73,SW,236,6.3,10.7,100,0.00,,,-99.99,1.0,HOBO +U30 +Weather +,2013-05-08 07:00:00,
2013-05-08 00:05:00,52.1,52.1,29.73,WSW,239,5.1,13.0,100,0.00,,,-99.99,1.0,HOBO +U30 +Weather +,2013-05-08 07:05:00,
2013-05-08 00:10:00,52.2,52.2,29.73,WSW,239,4.5,11.9,100,0.00,,,-99.99,1.0,HOBO +U30 +Weather +,2013-05-08 07:10:00,
2013-05-08 00:15:00,52.2,52.2,29.73,SW,229,4.5,9.6,100,0.00,,,-99.99,1.0,HOBO +U30 +Weather +,2013-05-08 07:15:00,
2013-05-08 00:20:00,52.2,52.2,29.73,SW,233,5.1,11.2,100,0.00,,,-99.99,1.0,HOBO +U30 +Weather +,2013-05-08 07:20:00,
2013-05-08 00:25:00,52.3,52.4,29.73,SW,230,5.1,10.1,100,0.00,,,-99.99,1.0,HOBO +U30 +Weather +,2013-05-08 07:25:00,
2013-05-08 00:30:00,52.4,52.4,29.73,WSW,253,1.8,6.7,100,0.00,,,-99.99,1.0,HOBO +U30 +Weather +,2013-05-08 07:30:00,
2013-05-08 00:35:00,52.2,52.2,29.73,WSW,241,4.0,8.9,100,0.00,,,-99.99,1.0,HOBO +U30 +Weather +,2013-05-08 07:35:00,
2013-05-08 00:40:00,52.3,52.4,29.73,WSW,247,3.4,6.7,100,0.00,,,-99.99,1.0,HOBO +U30 +Weather +,2013-05-08 07:40:00,
2013-05-08 00:45:00,52.2,52.2,29.73,WSW,250,2.2,6.3,100,0.00,,,-99.99,1.0,HOBO +U30 +Weather +,2013-05-08 07:45:00,
2013-05-08 00:50:00,52.1,52.1,29.73,SW,236,2.2,7.8,100,0.00,,,-99.99,1.0,HOBO +U30 +Weather +,2013-05-08 07:50:00,
2013-05-08 00:55:00,52.1,52.1,29.74,SW,226,2.9,8.5,100,0.00,,,-99.99,1.0,HOBO +U30 +Weather +,2013-05-08 07:55:00,
2013-05-08 01:00:00,52.0,52.1,29.73,SW,226,5.1,9.6,100,0.00,,,-99.99,1.0,HOBO +U30 +Weather +,2013-05-08 08:00:00,
2013-05-08 01:05:00,51.8,51.8,29.73,SW,234,5.1,10.7,100,0.00,,,-99.99,1.0,HOBO +U30 +Weather +,2013-05-08 08:05:00,
2013-05-08 01:10:00,51.8,51.8,29.73,SW,226,6.3,12.3,100,0.00,,,-99.99,1.0,HOBO +U30 +Weather +,2013-05-08 08:10:00,
2013-05-08 01:15:00,51.8,51.8,29.73,WSW,246,3.4,8.9,100,0.00,,,-99.99,1.0,HOBO +U30 +Weather +,2013-05-08 08:15:00,
2013-05-08 01:20:00,51.6,51.7,29.73,SW,230,3.4,8.5,100,0.00,,,-99.99,1.0,HOBO +U30 +Weather +,2013-05-08 08:20:00,
2013-05-08 01:25:00,51.5,51.5,29.73,WSW,248,4.0,10.1,100,0.00,,,-99.99,1.0,HOBO +U30 +Weather +,2013-05-08 08:25:00,
2013-05-08 01:30:00,51.6,51.6,29.73,West,268,2.9,10.1,100,0.00,,,-99.99,1.0,HOBO +U30 +Weather +,2013-05-08 08:30:00,
2013-05-08 01:35:00,51.5,51.5,29.73,WSW,258,2.9,7.4,100,0.00,,,-99.99,1.0,HOBO +U30 +Weather +,2013-05-08 08:35:00,
2013-05-08 01:40:00,51.4,51.4,29.73,SW,234,5.1,10.7,100,0.00,,,-99.99,1.0,HOBO +U30 +Weather +,2013-05-08 08:40:00,
2013-05-08 01:45:00,51.5,51.5,29.73,SW,233,3.4,9.6,100,0.00,,,-99.99,1.0,HOBO +U30 +Weather +,2013-05-08 08:45:00,
2013-05-08 01:50:00,51.3,51.3,29.73,WSW,250,3.4,11.9,100,0.00,,,-99.99,1.0,HOBO +U30 +Weather +,2013-05-08 08:50:00,
2013-05-08 01:55:00,51.2,51.3,29.73,SW,236,4.5,10.7,100,0.00,,,-99.99,1.0,HOBO +U30 +Weather +,2013-05-08 08:55:00,
2013-05-08 02:00:00,51.2,51.2,29.73,WSW,237,4.0,9.6,100,0.00,,,-99.99,1.0,HOBO +U30 +Weather +,2013-05-08 09:00:00,
2013-05-08 02:05:00,51.1,51.1,29.73,WSW,244,2.9,7.4,100,0.00,,,-99.99,1.0,HOBO +U30 +Weather +,2013-05-08 09:05:00,
2013-05-08 02:10:00,51.3,51.3,29.73,SW,225,2.9,8.5,100,0.00,,,-99.99,1.0,HOBO +U30 +Weather +,2013-05-08 09:10:00,
2013-05-08 02:15:00,51.4,51.4,29.73,SW,222,4.5,8.5,100,0.00,,,-99.99,1.0,HOBO +U30 +Weather +,2013-05-08 09:15:00,
2013-05-08 02:25:00,51.4,51.4,29.74,SW,218,3.4,7.8,100,0.00,,,-99.99,1.0,HOBO +U30 +Weather +,2013-05-08 09:25:00,
2013-05-08 02:30:00,51.3,51.3,29.74,SW,223,5.6,11.2,100,0.00,,,-99.99,1.0,HOBO +U30 +Weather +,2013-05-08 09:30:00,
2013-05-08 02:35:00,51.3,51.3,29.74,SW,236,4.0,8.5,100,0.00,,,-99.99,1.0,HOBO +U30 +Weather +,2013-05-08 09:35:00,
2013-05-08 02:40:00,51.2,51.2,29.74,SW,229,3.4,8.5,100,0.00,,,-99.99,1.0,HOBO +U30 +Weather +,2013-05-08 09:40:00,
2013-05-08 02:45:00,51.1,51.1,29.74,SW,236,4.0,8.9,100,0.00,,,-99.99,1.0,HOBO +U30 +Weather +,2013-05-08 09:45:00,
2013-05-08 02:50:00,51.1,51.1,29.74,SW,225,5.6,10.1,100,0.00,,,-99.99,1.0,HOBO +U30 +Weather +,2013-05-08 09:50:00,
2013-05-08 02:55:00,51.0,51.0,29.74,WSW,239,4.0,8.5,100,0.00,,,-99.99,1.0,HOBO +U30 +Weather +,2013-05-08 09:55:00,
2013-05-08 03:00:00,50.9,51.0,29.74,SW,222,4.5,11.2,100,0.00,,,-99.99,1.0,HOBO +U30 +Weather +,2013-05-08 10:00:00,
2013-05-08 03:05:00,50.8,50.9,29.74,SW,230,4.5,9.6,100,0.00,,,-99.99,1.0,HOBO +U30 +Weather +,2013-05-08 10:05:00,
2013-05-08 03:10:00,50.9,51.0,29.74,SW,225,4.5,8.9,100,0.00,,,-99.99,1.0,HOBO +U30 +Weather +,2013-05-08 10:10:00,
2013-05-08 03:15:00,50.8,50.8,29.74,SW,227,5.6,11.9,100,0.00,,,-99.99,1.0,HOBO +U30 +Weather +,2013-05-08 10:15:00,
2013-05-08 03:20:00,51.0,51.0,29.74,SW,236,4.5,10.7,100,0.00,,,-99.99,1.0,HOBO +U30 +Weather +,2013-05-08 10:20:00,
2013-05-08 03:25:00,50.9,51.0,29.75,SW,227,4.5,10.7,100,0.00,,,-99.99,1.0,HOBO +U30 +Weather +,2013-05-08 10:25:00,
2013-05-08 03:30:00,51.1,51.1,29.74,SW,236,5.6,10.1,100,0.00,,,-99.99,1.0,HOBO +U30 +Weather +,2013-05-08 10:30:00,
2013-05-08 03:35:00,51.0,51.0,29.74,SW,229,5.6,10.7,100,0.00,,,-99.99,1.0,HOBO +U30 +Weather +,2013-05-08 10:35:00,
2013-05-08 03:40:00,50.9,50.9,29.75,SW,227,6.7,11.9,100,0.00,,,-99.99,1.0,HOBO +U30 +Weather +,2013-05-08 10:40:00,
2013-05-08 03:45:00,51.0,51.0,29.74,SW,232,4.5,10.1,100,0.00,,,-99.99,1.0,HOBO +U30 +Weather +,2013-05-08 10:45:00,
2013-05-08 03:50:00,51.2,51.2,29.75,SW,227,4.5,9.6,100,0.00,,,-99.99,1.0,HOBO +U30 +Weather +,2013-05-08 10:50:00,
2013-05-08 03:55:00,51.3,51.3,29.74,SW,234,7.4,13.0,100,0.00,,,-99.99,1.0,HOBO +U30 +Weather +,2013-05-08 10:55:00,
2013-05-08 04:00:00,51.4,51.3,29.74,SW,230,8.5,14.1,99,0.00,,,-99.99,1.0,HOBO +U30 +Weather +,2013-05-08 11:00:00,
2013-05-08 04:05:00,51.3,51.1,29.74,SW,232,8.5,14.1,99,0.00,,,-99.99,1.0,HOBO +U30 +Weather +,2013-05-08 11:05:00,
2013-05-08 04:10:00,51.3,51.1,29.74,SW,232,6.3,14.1,99,0.00,,,-99.99,1.0,HOBO +U30 +Weather +,2013-05-08 11:10:00,
2013-05-08 04:15:00,51.3,51.0,29.74,SW,230,6.3,11.2,99,0.00,,,-99.99,1.0,HOBO +U30 +Weather +,2013-05-08 11:15:00,
2013-05-08 04:20:00,51.5,51.2,29.74,SW,233,5.6,11.2,98,0.00,,,-99.99,1.0,HOBO +U30 +Weather +,2013-05-08 11:20:00,
2013-05-08 04:25:00,51.5,51.2,29.74,SW,234,4.5,10.7,98,0.00,,,-99.99,1.0,HOBO +U30 +Weather +,2013-05-08 11:25:00,
2013-05-08 04:30:00,51.7,51.3,29.74,SW,232,4.5,11.9,98,0.00,,,-99.99,1.0,HOBO +U30 +Weather +,2013-05-08 11:30:00,
2013-05-08 04:35:00,51.6,51.3,29.74,SW,229,5.6,10.1,98,0.00,,,-99.99,1.0,HOBO +U30 +Weather +,2013-05-08 11:35:00,
2013-05-08 04:40:00,51.7,51.3,29.74,SW,230,2.9,8.5,98,0.00,,,-99.99,1.0,HOBO +U30 +Weather +,2013-05-08 11:40:00,
2013-05-08 04:45:00,51.8,51.4,29.74,SW,230,2.9,8.9,98,0.00,,,-99.99,1.0,HOBO +U30 +Weather +,2013-05-08 11:45:00,
2013-05-08 04:50:00,51.5,51.1,29.74,SW,230,4.5,11.2,98,0.00,,,-99.99,1.0,HOBO +U30 +Weather +,2013-05-08 11:50:00,
2013-05-08 04:55:00,51.5,51.0,29.75,SW,227,5.1,12.3,98,0.00,,,-99.99,1.0,HOBO +U30 +Weather +,2013-05-08 11:55:00,
2013-05-08 05:00:00,51.6,51.1,29.75,SW,230,4.5,11.9,98,0.00,,,-99.99,1.0,HOBO +U30 +Weather +,2013-05-08 12:00:00,
2013-05-08 05:05:00,51.6,51.1,29.75,SW,219,1.1,6.3,98,0.00,,,-99.99,1.0,HOBO +U30 +Weather +,2013-05-08 12:05:00,
2013-05-08 05:10:00,51.6,51.1,29.75,WSW,243,0.7,4.0,97,0.00,,,-99.99,1.0,HOBO +U30 +Weather +,2013-05-08 12:10:00,
2013-05-08 05:20:00,51.8,51.1,29.76,SW,226,1.1,4.5,97,0.00,,,-99.99,1.0,HOBO +U30 +Weather +,2013-05-08 12:20:00,
2013-05-08 05:23:00,51.6,51.0,29.76,SW,222,1.1,5.1,97,0.00,,,-99.99,1.0,HOBO +U30 +Weather +,2013-05-08 12:23:00,
2013-05-08 05:25:00,51.9,51.2,29.76,SW,225,2.2,6.3,97,0.00,,,-99.99,1.0,HOBO +U30 +Weather +,2013-05-08 12:25:00,
2013-05-08 05:30:00,51.9,51.2,29.76,SW,218,1.1,4.0,97,0.00,,,-99.99,1.0,HOBO +U30 +Weather +,2013-05-08 12:30:00,
2013-05-08 05:35:00,52.0,51.2,29.76,SW,225,3.4,10.1,96,0.00,,,-99.99,1.0,HOBO +U30 +Weather +,2013-05-08 12:35:00,
2013-05-08 05:40:00,52.0,51.0,29.75,SW,225,3.4,10.7,96,0.00,,,-99.99,1.0,HOBO +U30 +Weather +,2013-05-08 12:40:00,
2013-05-08 05:45:00,52.0,51.0,29.75,SW,233,3.4,7.8,96,0.00,,,-99.99,1.0,HOBO +U30 +Weather +,2013-05-08 12:45:00,
2013-05-08 05:50:00,52.1,51.0,29.76,SW,218,3.4,8.9,95,0.00,,,-99.99,1.0,HOBO +U30 +Weather +,2013-05-08 12:50:00,
2013-05-08 05:55:00,52.2,51.0,29.76,SW,225,4.5,9.6,95,0.00,,,-99.99,1.0,HOBO +U30 +Weather +,2013-05-08 12:55:00,
2013-05-08 06:00:00,52.3,51.1,29.76,WSW,237,2.2,7.8,95,0.00,,,-99.99,1.0,HOBO +U30 +Weather +,2013-05-08 13:00:00,
2013-05-08 06:05:00,52.4,51.2,29.75,SW,218,3.4,7.8,95,0.00,,,-99.99,2.0,HOBO +U30 +Weather +,2013-05-08 13:05:00,
2013-05-08 06:10:00,52.4,51.1,29.76,SW,236,3.4,7.8,95,0.00,,,-99.99,3.0,HOBO +U30 +Weather +,2013-05-08 13:10:00,
2013-05-08 06:15:00,52.4,51.1,29.76,SW,230,2.9,7.4,95,0.00,,,-99.99,3.0,HOBO +U30 +Weather +,2013-05-08 13:15:00,
2013-05-08 06:20:00,52.1,50.8,29.76,SW,220,6.3,11.9,95,0.00,,,-99.99,4.0,HOBO +U30 +Weather +,2013-05-08 13:20:00,
2013-05-08 06:25:00,52.3,51.0,29.76,SW,226,4.0,7.8,95,0.00,,,-99.99,7.0,HOBO +U30 +Weather +,2013-05-08 13:25:00,
2013-05-08 06:30:00,52.5,51.1,29.76,SW,226,4.0,7.4,94,0.00,,,-99.99,13.0,HOBO +U30 +Weather +,2013-05-08 13:30:00,
2013-05-08 06:35:00,52.4,50.9,29.76,SW,222,6.7,11.2,94,0.00,,,-99.99,16.0,HOBO +U30 +Weather +,2013-05-08 13:35:00,
2013-05-08 06:40:00,52.5,51.0,29.76,SW,225,6.3,13.0,94,0.00,,,-99.99,21.0,HOBO +U30 +Weather +,2013-05-08 13:40:00,
2013-05-08 06:45:00,52.5,51.0,29.76,SW,220,5.1,12.3,94,0.00,,,-99.99,22.0,HOBO +U30 +Weather +,2013-05-08 13:45:00,
2013-05-08 06:50:00,52.5,51.0,29.77,SW,223,5.6,10.7,94,0.00,,,-99.99,18.0,HOBO +U30 +Weather +,2013-05-08 13:50:00,
2013-05-08 06:55:00,52.5,51.0,29.77,SW,219,5.1,14.1,94,0.00,,,-99.99,19.0,HOBO +U30 +Weather +,2013-05-08 13:55:00,
2013-05-08 07:00:00,52.4,50.9,29.78,SW,225,7.8,12.3,94,0.00,,,-99.99,14.0,HOBO +U30 +Weather +,2013-05-08 14:00:00,
2013-05-08 07:05:00,52.5,51.0,29.78,SW,220,5.6,10.1,94,0.00,,,-99.99,9.0,HOBO +U30 +Weather +,2013-05-08 14:05:00,
2013-05-08 07:10:00,52.6,51.0,29.78,SW,225,3.4,8.9,94,0.00,,,-99.99,8.0,HOBO +U30 +Weather +,2013-05-08 14:10:00,
2013-05-08 07:15:00,52.6,50.9,29.79,SW,219,5.1,8.9,94,0.00,,,-99.99,8.0,HOBO +U30 +Weather +,2013-05-08 14:15:00,
2013-05-08 07:20:00,52.5,50.8,29.79,SW,222,5.6,10.1,93,0.00,,,-99.99,11.0,HOBO +U30 +Weather +,2013-05-08 14:20:00,
2013-05-08 07:25:00,52.6,50.8,29.79,SW,222,5.1,9.6,93,0.00,,,-99.99,12.0,HOBO +U30 +Weather +,2013-05-08 14:25:00,
2013-05-08 07:30:00,52.4,50.7,29.79,SW,232,5.6,11.2,93,0.00,,,-99.99,14.0,HOBO +U30 +Weather +,2013-05-08 14:30:00,
2013-05-08 07:35:00,52.5,50.9,29.79,SW,229,4.0,8.5,94,0.00,,,-99.99,17.0,HOBO +U30 +Weather +,2013-05-08 14:35:00,
2013-05-08 07:40:00,52.6,51.0,29.79,SW,219,2.2,5.1,94,0.00,,,-99.99,18.0,HOBO +U30 +Weather +,2013-05-08 14:40:00,
2013-05-08 07:45:00,52.8,51.1,29.79,SW,223,3.4,6.7,93,0.00,,,-99.99,19.0,HOBO +U30 +Weather +,2013-05-08 14:45:00,
2013-05-08 07:50:00,52.9,51.1,29.79,SW,216,2.9,6.3,93,0.00,,,-99.99,22.0,HOBO +U30 +Weather +,2013-05-08 14:50:00,
2013-05-08 07:55:00,52.8,51.1,29.79,SW,216,4.0,8.5,93,0.00,,,-99.99,26.0,HOBO +U30 +Weather +,2013-05-08 14:55:00,
2013-05-08 08:00:00,52.9,51.2,29.79,SW,223,4.5,8.9,93,0.00,,,-99.99,32.0,HOBO +U30 +Weather +,2013-05-08 15:00:00,
2013-05-08 08:05:00,52.7,51.0,29.79,SW,218,5.1,8.9,93,0.00,,,-99.99,41.0,HOBO +U30 +Weather +,2013-05-08 15:05:00,
2013-05-08 08:10:00,52.9,51.2,29.79,SW,220,2.9,8.5,93,0.00,,,-99.99,38.0,HOBO +U30 +Weather +,2013-05-08 15:10:00,
2013-05-08 08:20:00,52.9,51.0,29.79,SW,219,5.6,11.2,93,0.00,,,-99.99,36.0,HOBO +U30 +Weather +,2013-05-08 15:20:00,
2013-05-08 08:21:00,53.2,51.4,29.79,SW,225,2.9,7.8,93,0.00,,,-99.99,39.0,HOBO +U30 +Weather +,2013-05-08 15:21:00,
2013-05-08 08:25:00,52.9,51.2,29.79,SW,218,5.1,10.1,93,0.00,,,-99.99,41.0,HOBO +U30 +Weather +,2013-05-08 15:25:00,
2013-05-08 08:30:00,52.9,51.1,29.79,SW,215,5.1,8.5,93,0.00,,,-99.99,49.0,HOBO +U30 +Weather +,2013-05-08 15:30:00,
2013-05-08 08:35:00,53.0,51.2,29.79,SW,233,3.4,6.7,93,0.00,,,-99.99,61.0,HOBO +U30 +Weather +,2013-05-08 15:35:00,
2013-05-08 08:40:00,52.8,50.9,29.79,SW,234,4.0,8.5,93,0.00,,,-99.99,54.0,HOBO +U30 +Weather +,2013-05-08 15:40:00,
2013-05-08 08:45:00,53.1,51.2,29.80,SW,223,3.4,8.5,93,0.00,,,-99.99,56.0,HOBO +U30 +Weather +,2013-05-08 15:45:00,
2013-05-08 08:50:00,53.0,51.0,29.80,SW,220,5.1,8.9,92,0.00,,,-99.99,58.0,HOBO +U30 +Weather +,2013-05-08 15:50:00,
2013-05-08 08:55:00,53.1,51.1,29.80,SW,223,3.4,7.8,92,0.00,,,-99.99,57.0,HOBO +U30 +Weather +,2013-05-08 15:55:00,
2013-05-08 09:00:00,53.3,51.3,29.80,SW,233,2.2,6.7,92,0.00,,,-99.99,61.0,HOBO +U30 +Weather +,2013-05-08 16:00:00,
2013-05-08 09:05:00,53.1,51.0,29.80,SW,220,4.5,10.1,92,0.00,,,-99.99,88.0,HOBO +U30 +Weather +,2013-05-08 16:05:00,
2013-05-08 09:10:00,53.4,51.3,29.80,SW,215,4.0,8.9,92,0.00,,,-99.99,143.0,HOBO +U30 +Weather +,2013-05-08 16:10:00,
2013-05-08 09:20:00,53.7,51.2,29.80,SSW,213,4.5,8.5,91,0.00,,,-99.99,144.0,HOBO +U30 +Weather +,2013-05-08 16:20:00,
2013-05-08 09:22:00,53.8,51.6,29.80,SW,220,4.0,7.8,92,0.00,,,-99.99,166.0,HOBO +U30 +Weather +,2013-05-08 16:22:00,
2013-05-08 09:25:00,53.9,51.5,29.80,SW,220,4.5,8.5,91,0.00,,,-99.99,94.0,HOBO +U30 +Weather +,2013-05-08 16:25:00,
2013-05-08 09:30:00,53.7,51.0,29.80,SW,215,5.6,10.7,90,0.00,,,-99.99,92.0,HOBO +U30 +Weather +,2013-05-08 16:30:00,
2013-05-08 09:35:00,53.7,51.1,29.80,SW,226,6.3,10.7,91,0.00,,,-99.99,78.0,HOBO +U30 +Weather +,2013-05-08 16:35:00,
2013-05-08 09:40:00,53.7,51.1,29.80,SW,220,5.1,8.9,90,0.00,,,-99.99,66.0,HOBO +U30 +Weather +,2013-05-08 16:40:00,
2013-05-08 09:45:00,53.9,51.3,29.80,SW,232,2.9,7.4,91,0.00,,,-99.99,76.0,HOBO +U30 +Weather +,2013-05-08 16:45:00,
2013-05-08 09:50:00,53.9,51.3,29.81,SW,227,4.0,8.9,90,0.00,,,-99.99,92.0,HOBO +U30 +Weather +,2013-05-08 16:50:00,
2013-05-08 09:55:00,53.9,51.3,29.80,SW,222,5.1,8.9,91,0.00,,,-99.99,78.0,HOBO +U30 +Weather +,2013-05-08 16:55:00,
2013-05-08 10:00:00,53.8,51.3,29.81,SW,232,2.9,6.7,91,0.00,,,-99.99,78.0,HOBO +U30 +Weather +,2013-05-08 17:00:00,
2013-05-08 10:05:00,53.7,51.2,29.81,SW,234,3.4,8.5,91,0.00,,,-99.99,82.0,HOBO +U30 +Weather +,2013-05-08 17:05:00,
2013-05-08 10:10:00,53.6,51.2,29.80,SW,230,3.4,8.5,91,0.00,,,-99.99,82.0,HOBO +U30 +Weather +,2013-05-08 17:10:00,
2013-05-08 10:20:00,53.6,51.3,29.81,SW,227,4.5,7.4,91,0.00,,,-99.99,79.0,HOBO +U30 +Weather +,2013-05-08 17:20:00,
2013-05-08 10:21:00,53.6,51.3,29.80,SW,233,3.4,8.5,91,0.00,,,-99.99,82.0,HOBO +U30 +Weather +,2013-05-08 17:21:00,
2013-05-08 10:25:00,53.6,51.4,29.81,SW,233,3.4,7.8,92,0.00,,,-99.99,84.0,HOBO +U30 +Weather +,2013-05-08 17:25:00,
2013-05-08 10:30:00,53.5,51.5,29.81,WSW,246,1.8,6.3,92,0.00,,,-99.99,82.0,HOBO +U30 +Weather +,2013-05-08 17:30:00,
2013-05-08 10:35:00,53.3,51.5,29.81,West,260,1.8,6.3,93,0.00,,,-99.99,97.0,HOBO +U30 +Weather +,2013-05-08 17:35:00,
2013-05-08 10:40:00,53.5,51.8,29.81,WSW,254,1.8,5.6,94,0.00,,,-99.99,122.0,HOBO +U30 +Weather +,2013-05-08 17:40:00,
2013-05-08 10:45:00,53.5,51.9,29.81,WSW,243,2.2,7.4,94,0.00,,,-99.99,168.0,HOBO +U30 +Weather +,2013-05-08 17:45:00,
2013-05-08 10:50:00,53.7,52.1,29.81,SW,230,1.8,5.6,94,0.00,,,-99.99,152.0,HOBO +U30 +Weather +,2013-05-08 17:50:00,
2013-05-08 10:55:00,53.9,52.2,29.81,West,281,0.7,6.7,94,0.00,,,-99.99,164.0,HOBO +U30 +Weather +,2013-05-08 17:55:00,
2013-05-08 11:00:00,53.7,52.0,29.81,SW,230,2.2,7.8,93,0.00,,,-99.99,157.0,HOBO +U30 +Weather +,2013-05-08 18:00:00,
2013-05-08 11:05:00,53.6,51.9,29.81,West,267,2.2,6.3,93,0.00,,,-99.99,129.0,HOBO +U30 +Weather +,2013-05-08 18:05:00,
2013-05-08 11:10:00,53.6,51.9,29.81,SW,234,2.2,6.7,94,0.00,,,-99.99,144.0,HOBO +U30 +Weather +,2013-05-08 18:10:00,
2013-05-08 11:20:00,53.7,52.1,29.82,SW,215,2.9,7.4,94,0.00,,,-99.99,174.0,HOBO +U30 +Weather +,2013-05-08 18:20:00,
2013-05-08 11:21:00,53.6,52.0,29.81,WSW,243,2.9,8.9,94,0.00,,,-99.99,153.0,HOBO +U30 +Weather +,2013-05-08 18:21:00,
2013-05-08 11:25:00,53.4,51.7,29.81,WSW,247,2.2,10.1,93,0.00,,,-99.99,163.0,HOBO +U30 +Weather +,2013-05-08 18:25:00,
2013-05-08 11:30:00,53.7,51.9,29.82,WSW,251,2.9,8.5,93,0.00,,,-99.99,277.0,HOBO +U30 +Weather +,2013-05-08 18:30:00,
2013-05-08 11:35:00,54.3,52.3,29.82,SW,225,4.0,10.1,92,0.00,,,-99.99,366.0,HOBO +U30 +Weather +,2013-05-08 18:35:00,
2013-05-08 11:40:00,54.4,52.1,29.82,SW,236,6.3,11.2,91,0.00,,,-99.99,426.0,HOBO +U30 +Weather +,2013-05-08 18:40:00,
2013-05-08 11:45:00,55.6,52.8,29.82,SW,232,4.5,10.7,90,0.00,,,-99.99,453.0,HOBO +U30 +Weather +,2013-05-08 18:45:00,
2013-05-08 11:50:00,56.3,53.0,29.82,SW,227,3.4,7.8,88,0.00,,,-99.99,409.0,HOBO +U30 +Weather +,2013-05-08 18:50:00,
2013-05-08 11:55:00,55.7,52.2,29.82,SW,226,5.1,10.1,88,0.00,,,-99.99,294.0,HOBO +U30 +Weather +,2013-05-08 18:55:00,
2013-05-08 12:00:00,56.3,52.9,29.82,SW,227,1.8,5.6,88,0.00,,,-99.99,218.0,HOBO +U30 +Weather +,2013-05-08 19:00:00,
2013-05-08 12:05:00,55.8,52.3,29.82,West,274,1.8,7.4,88,0.00,,,-99.99,252.0,HOBO +U30 +Weather +,2013-05-08 19:05:00,
2013-05-08 12:10:00,55.3,51.9,29.82,WSW,257,3.4,10.1,88,0.00,,,-99.99,458.0,HOBO +U30 +Weather +,2013-05-08 19:10:00,
2013-05-08 12:20:00,56.6,53.0,29.82,SW,234,4.5,10.1,87,0.00,,,-99.99,396.0,HOBO +U30 +Weather +,2013-05-08 19:20:00,
2013-05-08 12:21:00,56.0,52.5,29.82,SW,229,4.5,10.7,88,0.00,,,-99.99,422.0,HOBO +U30 +Weather +,2013-05-08 19:21:00,
2013-05-08 12:25:00,55.8,52.0,29.82,WSW,251,4.5,13.4,86,0.00,,,-99.99,373.0,HOBO +U30 +Weather +,2013-05-08 19:25:00,
2013-05-08 12:30:00,55.7,52.2,29.82,WSW,247,4.0,9.6,87,0.00,,,-99.99,391.0,HOBO +U30 +Weather +,2013-05-08 19:30:00,
2013-05-08 12:35:00,55.9,52.4,29.82,SW,232,4.5,9.6,87,0.00,,,-99.99,419.0,HOBO +U30 +Weather +,2013-05-08 19:35:00,
2013-05-08 12:40:00,56.2,52.4,29.82,SW,234,5.6,12.3,87,0.00,,,-99.99,439.0,HOBO +U30 +Weather +,2013-05-08 19:40:00,
2013-05-08 12:45:00,56.8,52.9,29.81,WSW,250,3.4,10.7,86,0.00,,,-99.99,358.0,HOBO +U30 +Weather +,2013-05-08 19:45:00,
2013-05-08 12:50:00,55.7,51.4,29.81,WSW,253,5.1,11.9,85,0.00,,,-99.99,429.0,HOBO +U30 +Weather +,2013-05-08 19:50:00,
2013-05-08 12:55:00,56.1,52.2,29.81,WSW,237,5.1,10.1,86,0.00,,,-99.99,473.0,HOBO +U30 +Weather +,2013-05-08 19:55:00,
2013-05-08 13:00:00,56.0,51.9,29.81,WSW,248,4.5,10.7,85,0.00,,,-99.99,534.0,HOBO +U30 +Weather +,2013-05-08 20:00:00,
2013-05-08 13:05:00,56.6,52.3,29.81,WSW,240,4.5,11.9,85,0.00,,,-99.99,446.0,HOBO +U30 +Weather +,2013-05-08 20:05:00,
2013-05-08 13:10:00,56.6,51.9,29.81,SW,232,5.1,10.7,84,0.00,,,-99.99,597.0,HOBO +U30 +Weather +,2013-05-08 20:10:00,
2013-05-08 13:20:00,58.3,52.6,29.81,SW,225,4.0,8.9,81,0.00,,,-99.99,593.0,HOBO +U30 +Weather +,2013-05-08 20:20:00,
2013-05-08 13:21:00,57.5,52.4,29.81,SW,234,5.1,13.0,82,0.00,,,-99.99,547.0,HOBO +U30 +Weather +,2013-05-08 20:21:00,
2013-05-08 13:25:00,57.6,51.7,29.81,WSW,253,5.1,10.1,80,0.00,,,-99.99,598.0,HOBO +U30 +Weather +,2013-05-08 20:25:00,
2013-05-08 13:30:00,57.0,51.3,29.81,WSW,244,4.0,10.1,81,0.00,,,-99.99,546.0,HOBO +U30 +Weather +,2013-05-08 20:30:00,
2013-05-08 13:35:00,57.2,51.5,29.81,SW,229,6.3,13.0,81,0.00,,,-99.99,536.0,HOBO +U30 +Weather +,2013-05-08 20:35:00,
2013-05-08 13:40:00,57.4,51.4,29.81,WSW,251,5.1,11.9,80,0.00,,,-99.99,698.0,HOBO +U30 +Weather +,2013-05-08 20:40:00,
2013-05-08 13:45:00,56.9,50.9,29.81,WSW,250,6.3,11.9,80,0.00,,,-99.99,562.0,HOBO +U30 +Weather +,2013-05-08 20:45:00,
2013-05-08 13:50:00,57.4,51.3,29.80,WSW,248,6.3,11.2,80,0.00,,,-99.99,626.0,HOBO +U30 +Weather +,2013-05-08 20:50:00,
2013-05-08 13:55:00,57.8,51.4,29.80,WSW,251,5.6,12.3,79,0.00,,,-99.99,597.0,HOBO +U30 +Weather +,2013-05-08 20:55:00,
2013-05-08 14:00:00,57.7,51.3,29.80,WSW,241,6.3,13.4,79,0.00,,,-99.99,738.0,HOBO +U30 +Weather +,2013-05-08 21:00:00,
2013-05-08 14:05:00,58.2,51.8,29.81,WSW,254,4.5,9.6,79,0.00,,,-99.99,776.0,HOBO +U30 +Weather +,2013-05-08 21:05:00,
2013-05-08 14:10:00,58.7,52.6,29.81,WSW,247,4.5,11.2,79,0.00,,,-99.99,627.0,HOBO +U30 +Weather +,2013-05-08 21:10:00,
2013-05-08 14:20:00,57.1,51.5,29.80,WSW,253,5.1,10.7,81,0.00,,,-99.99,526.0,HOBO +U30 +Weather +,2013-05-08 21:20:00,
2013-05-08 14:21:00,57.5,51.0,29.80,WSW,237,5.6,12.3,78,0.00,,,-99.99,524.0,HOBO +U30 +Weather +,2013-05-08 21:21:00,
2013-05-08 14:25:00,56.8,51.6,29.80,WSW,248,5.6,11.2,82,0.00,,,-99.99,513.0,HOBO +U30 +Weather +,2013-05-08 21:25:00,
2013-05-08 14:30:00,57.5,52.3,29.80,WSW,250,4.5,14.1,82,0.00,,,-99.99,394.0,HOBO +U30 +Weather +,2013-05-08 21:30:00,
2013-05-08 14:35:00,57.1,51.6,29.80,WSW,240,5.6,12.3,81,0.00,,,-99.99,418.0,HOBO +U30 +Weather +,2013-05-08 21:35:00,
2013-05-08 14:40:00,56.1,51.2,29.80,SW,236,7.8,15.2,83,0.00,,,-99.99,393.0,HOBO +U30 +Weather +,2013-05-08 21:40:00,
2013-05-08 14:45:00,56.1,51.5,29.81,SW,230,7.4,13.4,84,0.00,,,-99.99,438.0,HOBO +U30 +Weather +,2013-05-08 21:45:00,
2013-05-08 14:50:00,57.3,52.4,29.80,WSW,250,4.0,10.7,83,0.00,,,-99.99,352.0,HOBO +U30 +Weather +,2013-05-08 21:50:00,
2013-05-08 14:55:00,55.9,51.2,29.80,SW,230,7.4,15.2,84,0.00,,,-99.99,338.0,HOBO +U30 +Weather +,2013-05-08 21:55:00,
2013-05-08 15:00:00,55.7,51.5,29.80,SW,233,6.3,11.2,85,0.00,,,-99.99,367.0,HOBO +U30 +Weather +,2013-05-08 22:00:00,
2013-05-08 15:05:00,56.0,51.7,29.80,WSW,240,5.6,14.1,85,0.00,,,-99.99,344.0,HOBO +U30 +Weather +,2013-05-08 22:05:00,
2013-05-08 15:10:00,55.7,51.3,29.80,WSW,247,5.1,10.7,85,0.00,,,-99.99,363.0,HOBO +U30 +Weather +,2013-05-08 22:10:00,
2013-05-08 15:20:00,55.6,50.9,29.80,SW,234,7.8,15.2,84,0.00,,,-99.99,409.0,HOBO +U30 +Weather +,2013-05-08 22:20:00,
2013-05-08 15:21:00,56.1,51.7,29.80,SW,229,5.1,12.3,85,0.00,,,-99.99,391.0,HOBO +U30 +Weather +,2013-05-08 22:21:00,
2013-05-08 15:25:00,55.8,51.0,29.80,SW,230,7.8,17.0,84,0.00,,,-99.99,456.0,HOBO +U30 +Weather +,2013-05-08 22:25:00,
2013-05-08 15:30:00,55.9,51.0,29.80,WSW,239,7.4,17.0,83,0.00,,,-99.99,464.0,HOBO +U30 +Weather +,2013-05-08 22:30:00,
2013-05-08 15:35:00,55.9,51.4,29.80,SW,234,9.6,17.0,84,0.00,,,-99.99,483.0,HOBO +U30 +Weather +,2013-05-08 22:35:00,
2013-05-08 15:40:00,55.7,51.2,29.80,WSW,243,7.4,15.9,84,0.00,,,-99.99,441.0,HOBO +U30 +Weather +,2013-05-08 22:40:00,
2013-05-08 15:45:00,55.3,50.9,29.79,SW,234,9.6,16.3,84,0.00,,,-99.99,413.0,HOBO +U30 +Weather +,2013-05-08 22:45:00,
2013-05-08 15:50:00,55.9,51.6,29.80,SW,226,7.4,14.1,85,0.00,,,-99.99,353.0,HOBO +U30 +Weather +,2013-05-08 22:50:00,
2013-05-08 15:55:00,55.0,51.0,29.79,WSW,239,8.9,15.9,86,0.00,,,-99.99,339.0,HOBO +U30 +Weather +,2013-05-08 22:55:00,
2013-05-08 16:00:00,55.3,51.5,29.79,SW,234,7.8,18.6,87,0.00,,,-99.99,416.0,HOBO +U30 +Weather +,2013-05-08 23:00:00,
2013-05-08 16:05:00,55.3,51.3,29.79,SW,233,8.9,17.4,86,0.00,,,-99.99,403.0,HOBO +U30 +Weather +,2013-05-08 23:05:00,
2013-05-08 16:10:00,55.9,51.6,29.79,SW,232,8.9,15.9,85,0.00,,,-99.99,507.0,HOBO +U30 +Weather +,2013-05-08 23:10:00,
2013-05-08 16:20:00,55.7,51.3,29.78,SW,232,9.6,15.2,85,0.00,,,-99.99,512.0,HOBO +U30 +Weather +,2013-05-08 23:20:00,
2013-05-08 16:21:00,56.1,51.5,29.78,SW,236,8.9,16.3,84,0.00,,,-99.99,582.0,HOBO +U30 +Weather +,2013-05-08 23:21:00,
2013-05-08 16:25:00,55.9,51.5,29.78,SW,233,9.6,15.9,85,0.00,,,-99.99,554.0,HOBO +U30 +Weather +,2013-05-08 23:25:00,
2013-05-08 16:30:00,55.4,51.3,29.78,SW,234,10.1,18.6,86,0.00,,,-99.99,373.0,HOBO +U30 +Weather +,2013-05-08 23:30:00,
2013-05-08 16:35:00,54.8,50.8,29.78,SW,234,9.6,18.1,86,0.00,,,-99.99,316.0,HOBO +U30 +Weather +,2013-05-08 23:35:00,
2013-05-08 16:40:00,54.6,50.9,29.78,SW,229,11.2,18.6,87,0.00,,,-99.99,268.0,HOBO +U30 +Weather +,2013-05-08 23:40:00,
2013-05-08 16:45:00,54.5,51.0,29.78,SW,230,10.1,17.0,87,0.00,,,-99.99,257.0,HOBO +U30 +Weather +,2013-05-08 23:45:00,
2013-05-08 16:50:00,53.7,50.8,29.79,WSW,237,11.2,19.7,90,0.00,,,-99.99,204.0,HOBO +U30 +Weather +,2013-05-08 23:50:00,
2013-05-08 16:55:00,53.7,50.9,29.79,WSW,239,9.6,17.0,90,0.00,,,-99.99,214.0,HOBO +U30 +Weather +,2013-05-08 23:55:00,
2013-05-08 17:00:00,53.5,51.0,29.78,SW,232,9.6,19.7,91,0.00,,,-99.99,197.0,HOBO +U30 +Weather +,2013-05-09 00:00:00,
2013-05-08 17:05:00,53.8,51.2,29.78,SW,233,8.9,15.2,90,0.00,,,-99.99,186.0,HOBO +U30 +Weather +,2013-05-09 00:05:00,
2013-05-08 17:10:00,53.6,50.9,29.78,WSW,239,9.6,15.9,90,0.00,,,-99.99,183.0,HOBO +U30 +Weather +,2013-05-09 00:10:00,
2013-05-08 17:20:00,53.6,50.8,29.78,SW,233,7.8,17.0,90,0.00,,,-99.99,137.0,HOBO +U30 +Weather +,2013-05-09 00:20:00,
2013-05-08 17:21:00,53.8,51.1,29.78,SW,236,7.8,16.3,90,0.00,,,-99.99,183.0,HOBO +U30 +Weather +,2013-05-09 00:21:00,
2013-05-08 17:25:00,53.4,50.8,29.79,SW,234,8.9,15.9,90,0.00,,,-99.99,119.0,HOBO +U30 +Weather +,2013-05-09 00:25:00,
2013-05-08 17:30:00,53.0,50.4,29.79,SW,234,9.6,16.3,90,0.00,,,-99.99,133.0,HOBO +U30 +Weather +,2013-05-09 00:30:00,
2013-05-08 17:35:00,53.1,50.5,29.78,WSW,240,6.7,11.9,90,0.00,,,-99.99,157.0,HOBO +U30 +Weather +,2013-05-09 00:35:00,
2013-05-08 17:40:00,53.3,50.5,29.78,WSW,253,4.5,10.7,90,0.00,,,-99.99,142.0,HOBO +U30 +Weather +,2013-05-09 00:40:00,
2013-05-08 17:45:00,53.8,50.9,29.79,SW,229,4.5,11.9,89,0.00,,,-99.99,152.0,HOBO +U30 +Weather +,2013-05-09 00:45:00,
2013-05-08 17:50:00,53.5,50.4,29.79,WSW,254,5.1,13.0,89,0.00,,,-99.99,121.0,HOBO +U30 +Weather +,2013-05-09 00:50:00,
2013-05-08 17:55:00,53.1,50.2,29.78,WSW,237,7.8,14.5,89,0.00,,,-99.99,124.0,HOBO +U30 +Weather +,2013-05-09 00:55:00,
2013-05-08 18:00:00,53.2,50.4,29.78,SW,233,4.5,12.3,90,0.00,,,-99.99,106.0,HOBO +U30 +Weather +,2013-05-09 01:00:00,
2013-05-08 18:05:00,53.1,50.4,29.78,WSW,237,6.7,15.2,90,0.00,,,-99.99,99.0,HOBO +U30 +Weather +,2013-05-09 01:05:00,
2013-05-08 18:10:00,53.0,50.3,29.78,WSW,244,5.6,13.0,90,0.00,,,-99.99,78.0,HOBO +U30 +Weather +,2013-05-09 01:10:00,
2013-05-08 18:20:00,53.1,50.6,29.78,WSW,240,5.6,13.4,91,0.00,,,-99.99,76.0,HOBO +U30 +Weather +,2013-05-09 01:20:00,
2013-05-08 18:25:00,52.9,50.5,29.78,WSW,241,5.6,13.0,91,0.00,,,-99.99,59.0,HOBO +U30 +Weather +,2013-05-09 01:25:00,
2013-05-08 18:30:00,52.6,50.4,29.78,WSW,247,5.6,12.3,92,0.00,,,-99.99,66.0,HOBO +U30 +Weather +,2013-05-09 01:30:00,
2013-05-08 18:35:00,52.6,50.3,29.78,WSW,247,4.5,10.7,91,0.00,,,-99.99,64.0,HOBO +U30 +Weather +,2013-05-09 01:35:00,
2013-05-08 18:40:00,52.6,50.2,29.78,WSW,253,4.5,13.4,91,0.00,,,-99.99,56.0,HOBO +U30 +Weather +,2013-05-09 01:40:00,
2013-05-08 18:45:00,52.6,50.1,29.78,WSW,240,6.3,13.0,91,0.00,,,-99.99,51.0,HOBO +U30 +Weather +,2013-05-09 01:45:00,
2013-05-08 18:50:00,52.6,50.1,29.78,SW,229,4.5,14.1,91,0.00,,,-99.99,43.0,HOBO +U30 +Weather +,2013-05-09 01:50:00,
2013-05-08 18:55:00,52.5,50.0,29.78,WSW,241,4.5,10.1,91,0.00,,,-99.99,47.0,HOBO +U30 +Weather +,2013-05-09 01:55:00,
2013-05-08 19:00:00,52.2,49.8,29.78,WSW,244,5.6,14.5,91,0.00,,,-99.99,49.0,HOBO +U30 +Weather +,2013-05-09 02:00:00,
2013-05-08 19:05:00,52.3,49.9,29.78,SW,234,4.5,10.7,91,0.00,,,-99.99,37.0,HOBO +U30 +Weather +,2013-05-09 02:05:00,
2013-05-08 19:10:00,52.2,49.9,29.78,WSW,244,5.1,13.0,91,0.00,,,-99.99,23.0,HOBO +U30 +Weather +,2013-05-09 02:10:00,
2013-05-08 19:20:00,52.1,49.9,29.78,WSW,248,5.1,11.9,92,0.00,,,-99.99,26.0,HOBO +U30 +Weather +,2013-05-09 02:20:00,
2013-05-08 19:25:00,52.2,50.2,29.78,SW,236,4.5,10.7,92,0.00,,,-99.99,18.0,HOBO +U30 +Weather +,2013-05-09 02:25:00,
2013-05-08 19:30:00,52.0,49.9,29.78,WSW,244,4.5,14.5,92,0.00,,,-99.99,18.0,HOBO +U30 +Weather +,2013-05-09 02:30:00,
2013-05-08 19:35:00,51.8,49.7,29.78,WSW,246,6.7,12.3,92,0.00,,,-99.99,12.0,HOBO +U30 +Weather +,2013-05-09 02:35:00,
2013-05-08 19:40:00,51.9,49.7,29.78,SW,232,7.4,13.0,92,0.00,,,-99.99,9.0,HOBO +U30 +Weather +,2013-05-09 02:40:00,
2013-05-08 19:45:00,52.0,50.0,29.78,SW,230,5.6,15.9,92,0.00,,,-99.99,8.0,HOBO +U30 +Weather +,2013-05-09 02:45:00,
2013-05-08 19:50:00,51.9,49.8,29.78,SW,236,4.0,12.3,92,0.00,,,-99.99,6.0,HOBO +U30 +Weather +,2013-05-09 02:50:00,
2013-05-08 19:55:00,51.7,49.7,29.78,SW,229,7.8,13.4,92,0.00,,,-99.99,3.0,HOBO +U30 +Weather +,2013-05-09 02:55:00,
2013-05-08 20:00:00,51.8,49.9,29.79,SW,236,6.3,13.0,93,0.00,,,-99.99,2.0,HOBO +U30 +Weather +,2013-05-09 03:00:00,
2013-05-08 20:05:00,51.7,49.8,29.79,WSW,243,6.3,13.4,93,0.00,,,-99.99,1.0,HOBO +U30 +Weather +,2013-05-09 03:05:00,
2013-05-08 20:19:00,51.8,49.9,29.79,WSW,256,3.4,8.5,93,0.00,,,-99.99,1.0,HOBO +U30 +Weather +,2013-05-09 03:19:00,
2013-05-08 20:20:00,51.9,49.7,29.79,West,270,1.8,5.6,92,0.00,,,-99.99,1.0,HOBO +U30 +Weather +,2013-05-09 03:20:00,
2013-05-08 20:25:00,51.9,49.8,29.79,WSW,257,3.4,6.3,92,0.00,,,-99.99,1.0,HOBO +U30 +Weather +,2013-05-09 03:25:00,
2013-05-08 20:30:00,52.0,49.7,29.80,WSW,250,2.2,10.1,92,0.00,,,-99.99,1.0,HOBO +U30 +Weather +,2013-05-09 03:30:00,
2013-05-08 20:35:00,51.8,49.6,29.80,WSW,250,6.3,14.1,92,0.00,,,-99.99,1.0,HOBO +U30 +Weather +,2013-05-09 03:35:00,
2013-05-08 20:40:00,51.8,49.5,29.80,WSW,247,5.1,11.2,92,0.00,,,-99.99,1.0,HOBO +U30 +Weather +,2013-05-09 03:40:00,
2013-05-08 20:45:00,51.8,49.6,29.80,WSW,248,4.0,11.9,92,0.00,,,-99.99,1.0,HOBO +U30 +Weather +,2013-05-09 03:45:00,
2013-05-08 20:50:00,51.9,49.8,29.80,WSW,246,4.5,12.3,92,0.00,,,-99.99,1.0,HOBO +U30 +Weather +,2013-05-09 03:50:00,
2013-05-08 20:55:00,51.7,49.6,29.81,WSW,247,4.5,10.7,92,0.00,,,-99.99,1.0,HOBO +U30 +Weather +,2013-05-09 03:55:00,
2013-05-08 21:00:00,51.6,49.6,29.81,WSW,248,4.5,10.1,92,0.00,,,-99.99,1.0,HOBO +U30 +Weather +,2013-05-09 04:00:00,
2013-05-08 21:05:00,51.7,49.7,29.81,WSW,241,4.0,11.9,92,0.00,,,-99.99,1.0,HOBO +U30 +Weather +,2013-05-09 04:05:00,
2013-05-08 21:10:00,51.7,49.6,29.82,WSW,244,3.4,9.6,92,0.00,,,-99.99,1.0,HOBO +U30 +Weather +,2013-05-09 04:10:00,
2013-05-08 21:15:00,51.6,49.5,29.81,WSW,250,4.0,9.6,92,0.00,,,-99.99,1.0,HOBO +U30 +Weather +,2013-05-09 04:15:00,
2013-05-08 21:20:00,51.5,49.5,29.82,WSW,250,4.0,11.2,92,0.00,,,-99.99,1.0,HOBO +U30 +Weather +,2013-05-09 04:20:00,
2013-05-08 21:25:00,51.5,49.4,29.82,WSW,246,5.1,11.9,92,0.00,,,-99.99,1.0,HOBO +U30 +Weather +,2013-05-09 04:25:00,
2013-05-08 21:30:00,51.5,49.3,29.82,WSW,241,4.0,8.9,92,0.00,,,-99.99,1.0,HOBO +U30 +Weather +,2013-05-09 04:30:00,
2013-05-08 21:35:00,51.5,49.2,29.82,SW,233,4.0,8.5,92,0.00,,,-99.99,1.0,HOBO +U30 +Weather +,2013-05-09 04:35:00,
2013-05-08 21:40:00,51.5,49.2,29.82,SW,236,5.1,10.7,91,0.00,,,-99.99,1.0,HOBO +U30 +Weather +,2013-05-09 04:40:00,
2013-05-08 21:45:00,51.6,49.4,29.82,SW,236,6.7,13.4,91,0.00,,,-99.99,1.0,HOBO +U30 +Weather +,2013-05-09 04:45:00,
2013-05-08 21:50:00,51.7,49.4,29.82,WSW,237,5.6,11.2,91,0.00,,,-99.99,1.0,HOBO +U30 +Weather +,2013-05-09 04:50:00,
2013-05-08 21:55:00,51.7,49.4,29.82,SW,230,6.7,14.1,91,0.00,,,-99.99,1.0,HOBO +U30 +Weather +,2013-05-09 04:55:00,
2013-05-08 22:00:00,51.7,49.5,29.82,SW,233,7.4,13.4,92,0.00,,,-99.99,1.0,HOBO +U30 +Weather +,2013-05-09 05:00:00,
2013-05-08 22:05:00,51.8,49.6,29.82,WSW,237,7.4,14.1,92,0.00,,,-99.99,1.0,HOBO +U30 +Weather +,2013-05-09 05:05:00,
2013-05-08 22:10:00,51.8,49.7,29.82,SW,233,8.9,16.3,92,0.00,,,-99.99,1.0,HOBO +U30 +Weather +,2013-05-09 05:10:00,
2013-05-08 22:15:00,51.7,49.6,29.82,WSW,243,5.6,13.4,92,0.00,,,-99.99,1.0,HOBO +U30 +Weather +,2013-05-09 05:15:00,
2013-05-08 22:20:00,51.7,49.6,29.82,SW,233,6.3,13.0,92,0.00,,,-99.99,1.0,HOBO +U30 +Weather +,2013-05-09 05:20:00,
2013-05-08 22:25:00,51.6,49.5,29.82,SW,233,5.1,13.4,92,0.00,,,-99.99,1.0,HOBO +U30 +Weather +,2013-05-09 05:25:00,
2013-05-08 22:30:00,51.7,49.6,29.82,WSW,244,6.3,13.4,92,0.00,,,-99.99,1.0,HOBO +U30 +Weather +,2013-05-09 05:30:00,
2013-05-08 22:35:00,51.7,49.6,29.82,SW,229,6.7,14.1,92,0.00,,,-99.99,1.0,HOBO +U30 +Weather +,2013-05-09 05:35:00,
2013-05-08 22:40:00,51.7,49.6,29.82,SW,234,7.8,12.3,92,0.00,,,-99.99,1.0,HOBO +U30 +Weather +,2013-05-09 05:40:00,
2013-05-08 22:45:00,51.7,49.6,29.82,SW,230,7.8,16.3,92,0.00,,,-99.99,1.0,HOBO +U30 +Weather +,2013-05-09 05:45:00,
2013-05-08 22:50:00,51.7,49.5,29.81,SW,230,8.5,17.0,92,0.00,,,-99.99,1.0,HOBO +U30 +Weather +,2013-05-09 05:50:00,
2013-05-08 22:55:00,51.7,49.5,29.82,WSW,237,6.7,13.4,92,0.00,,,-99.99,1.0,HOBO +U30 +Weather +,2013-05-09 05:55:00,
2013-05-08 23:00:00,51.7,49.6,29.81,SW,236,5.1,11.9,92,0.00,,,-99.99,1.0,HOBO +U30 +Weather +,2013-05-09 06:00:00,
2013-05-08 23:05:00,51.7,49.6,29.81,SW,236,5.1,12.3,92,0.00,,,-99.99,1.0,HOBO +U30 +Weather +,2013-05-09 06:05:00,
2013-05-08 23:15:00,51.5,49.4,29.82,WSW,247,5.1,13.0,92,0.00,,,-99.99,1.0,HOBO +U30 +Weather +,2013-05-09 06:15:00,
2013-05-08 23:17:00,51.6,49.5,29.81,WSW,239,4.5,12.3,92,0.00,,,-99.99,1.0,HOBO +U30 +Weather +,2013-05-09 06:17:00,
2013-05-08 23:20:00,51.6,49.5,29.82,WSW,240,5.1,15.2,92,0.00,,,-99.99,1.0,HOBO +U30 +Weather +,2013-05-09 06:20:00,
2013-05-08 23:25:00,51.6,49.5,29.82,WSW,247,4.5,10.1,92,0.00,,,-99.99,1.0,HOBO +U30 +Weather +,2013-05-09 06:25:00,
2013-05-08 23:30:00,51.6,49.5,29.82,SW,233,5.1,9.6,92,0.00,,,-99.99,1.0,HOBO +U30 +Weather +,2013-05-09 06:30:00,
2013-05-08 23:35:00,51.5,49.5,29.82,WSW,247,5.6,10.1,92,0.00,,,-99.99,1.0,HOBO +U30 +Weather +,2013-05-09 06:35:00,
2013-05-08 23:40:00,51.5,49.5,29.82,WSW,240,6.3,15.2,92,0.00,,,-99.99,1.0,HOBO +U30 +Weather +,2013-05-09 06:40:00,
2013-05-08 23:45:00,51.5,49.5,29.82,SW,236,5.1,10.1,92,0.00,,,-99.99,1.0,HOBO +U30 +Weather +,2013-05-09 06:45:00,
2013-05-08 23:50:00,51.6,49.6,29.82,WSW,239,5.1,11.2,92,0.00,,,-99.99,1.0,HOBO +U30 +Weather +,2013-05-09 06:50:00,
2013-05-08 23:55:00,51.5,49.5,29.82,SW,226,5.1,14.5,92,0.00,,,-99.99,1.0,HOBO +U30 +Weather +,2013-05-09 06:55:00,